createdAt,value
2023-04-03T00:01:41.756Z,98136.00
2023-04-03T00:04:20.721Z,98135.98
2023-04-03T00:06:49.194Z,98136.42
2023-04-03T00:09:20.566Z,98134.92
2023-04-03T00:11:51.748Z,98139.70
2023-04-03T00:21:56.923Z,98148.17
2023-04-03T00:24:25.891Z,98151.56
2023-04-03T00:26:59.916Z,98148.27
2023-04-03T00:29:28.992Z,98155.80
2023-04-03T00:31:57.612Z,98156.95
2023-04-03T00:34:27.390Z,98157.72
2023-04-03T00:36:57.163Z,98156.50
2023-04-03T00:39:26.295Z,98157.41
2023-04-03T00:41:57.139Z,98160.14
2023-04-03T00:44:30.120Z,98161.60
2023-04-03T00:46:58.598Z,98163.03
2023-04-03T00:49:27.692Z,98166.55
2023-04-03T00:51:56.212Z,98166.46
2023-04-03T00:54:24.756Z,98169.73
2023-04-03T00:56:53.356Z,98170.96
2023-04-03T00:59:27.184Z,98170.98
2023-04-03T01:01:57.495Z,98169.77
2023-04-03T01:04:41.462Z,98179.61
2023-04-03T01:07:16.413Z,98177.38
2023-04-03T01:09:46.568Z,98174.84
2023-04-03T01:12:15.192Z,98174.63
2023-04-03T01:14:49.489Z,98178.79
2023-04-03T01:17:37.393Z,98179.17
2023-04-03T01:20:36.944Z,98180.27
2023-04-03T01:23:10.749Z,98184.93
2023-04-03T01:25:43.812Z,98184.19
2023-04-03T01:28:13.951Z,98189.48
2023-04-03T01:30:46.833Z,98186.47
2023-04-03T01:33:15.808Z,98186.81
2023-04-03T01:35:44.627Z,98188.94
2023-04-03T01:38:17.173Z,98192.25
2023-04-03T01:40:45.557Z,98196.08
2023-04-03T01:43:14.366Z,98197.73
2023-04-03T01:45:43.465Z,98203.38
2023-04-03T01:48:12.133Z,98203.02
2023-04-03T01:50:40.719Z,98206.89
2023-04-03T01:53:09.494Z,98208.30
2023-04-03T01:55:37.970Z,98204.73
2023-04-03T01:58:06.883Z,98207.97
2023-04-03T02:00:35.746Z,98212.15
2023-04-03T02:03:06.716Z,98214.91
2023-04-03T02:05:35.077Z,98212.98
2023-04-03T02:08:05.501Z,98219.74
2023-04-03T02:10:34.094Z,98215.45
2023-04-03T02:13:02.597Z,98219.71
2023-04-03T02:15:31.769Z,98223.66
2023-04-03T02:18:01.242Z,98222.13
2023-04-03T02:20:30.049Z,98223.44
2023-04-03T02:22:59.744Z,98226.62
2023-04-03T02:25:28.373Z,98228.44
2023-04-03T02:28:03.382Z,98226.08
2023-04-03T02:30:33.393Z,98230.82
2023-04-03T02:33:02.366Z,98232.73
2023-04-03T02:35:33.371Z,98233.39
2023-04-03T02:38:01.904Z,98238.94
2023-04-03T02:40:30.761Z,98240.15
2023-04-03T02:42:59.279Z,98242.93
2023-04-03T02:45:28.264Z,98246.52
2023-04-03T02:47:56.686Z,98247.19
2023-04-03T02:50:25.330Z,98249.24
2023-04-03T02:52:54.221Z,98251.02
2023-04-03T02:55:22.933Z,98252.63
2023-04-03T02:57:52.078Z,98254.35
2023-04-03T03:00:21.429Z,98254.68
2023-04-03T03:02:50.565Z,98252.42
2023-04-03T03:05:19.381Z,98255.45
2023-04-03T03:07:48.901Z,98259.23
2023-04-03T03:10:17.802Z,98259.23
2023-04-03T03:12:47.804Z,98256.81
2023-04-03T03:15:16.899Z,98262.40
2023-04-03T03:17:45.411Z,98259.27
2023-04-03T03:20:16.438Z,98262.48
2023-04-03T03:22:45.880Z,98259.18
2023-04-03T03:25:14.612Z,98258.20
2023-04-03T03:27:45.141Z,98259.04
2023-04-03T03:30:13.796Z,98258.52
2023-04-03T03:32:42.572Z,98262.08
2023-04-03T03:35:11.500Z,98265.34
2023-04-03T03:37:39.988Z,98265.40
2023-04-03T03:40:09.614Z,98269.07
2023-04-03T03:42:39.808Z,98274.21
2023-04-03T03:45:09.657Z,98272.31
2023-04-03T03:47:38.633Z,98274.92
2023-04-03T03:50:08.121Z,98280.89
2023-04-03T03:52:37.189Z,98285.73
2023-04-03T03:55:06.102Z,98291.85
2023-04-03T03:57:36.447Z,98291.21
2023-04-03T04:00:06.453Z,98286.08
2023-04-03T04:02:48.041Z,98289.27
2023-04-03T04:05:19.186Z,98287.48
2023-04-03T04:07:47.779Z,98288.02
2023-04-03T04:10:16.419Z,98292.83
2023-04-03T04:12:45.749Z,98296.48
2023-04-03T04:15:15.973Z,98299.05
2023-04-03T04:17:46.397Z,98301.45
2023-04-03T04:20:14.843Z,98304.96
2023-04-03T04:22:44.685Z,98300.48
2023-04-03T04:25:14.042Z,98301.71
2023-04-03T04:27:43.904Z,98302.97
2023-04-03T04:30:15.156Z,98305.36
2023-04-03T04:32:44.413Z,98307.61
2023-04-03T04:35:16.169Z,98306.40
2023-04-03T04:37:45.857Z,98306.79
2023-04-03T04:40:15.057Z,98310.01
2023-04-03T04:42:44.320Z,98313.98
2023-04-03T04:45:13.404Z,98311.70
2023-04-03T04:47:44.375Z,98315.98
2023-04-03T04:50:13.848Z,98316.23
2023-04-03T04:52:43.660Z,98317.35
2023-04-03T04:55:12.383Z,98319.02
2023-04-03T04:57:42.485Z,98324.63
2023-04-03T05:00:12.379Z,98325.75
2023-04-03T05:02:41.764Z,98328.59
2023-04-03T05:05:11.304Z,98331.45
2023-04-03T05:07:40.282Z,98331.35
2023-04-03T05:10:10.451Z,98340.88
2023-04-03T05:12:38.891Z,98340.86
2023-04-03T05:15:08.642Z,98336.19
2023-04-03T05:17:37.144Z,98337.38
2023-04-03T05:20:07.708Z,98346.29
2023-04-03T05:22:36.799Z,98345.41
2023-04-03T05:25:09.209Z,98347.48
2023-04-03T05:27:37.877Z,98355.73
2023-04-03T05:30:07.575Z,98356.03
2023-04-03T05:32:37.028Z,98355.83
2023-04-03T05:35:15.106Z,98358.30
2023-04-03T05:37:45.499Z,98366.59
2023-04-03T05:40:15.894Z,98367.52
2023-04-03T05:42:46.661Z,98367.90
2023-04-03T05:45:15.861Z,98370.86
2023-04-03T05:47:44.283Z,98371.89
2023-04-03T05:50:13.659Z,98368.79
2023-04-03T05:52:44.571Z,98375.09
2023-04-03T05:55:13.874Z,98377.39
2023-04-03T05:57:44.029Z,98379.61
2023-04-03T06:00:16.901Z,98379.44
2023-04-03T06:02:49.955Z,98383.48
2023-04-03T06:05:21.426Z,98384.56
2023-04-03T06:07:51.185Z,98388.09
2023-04-03T06:10:21.237Z,98391.03
2023-04-03T06:12:51.810Z,98385.16
2023-04-03T06:15:20.059Z,98392.52
2023-04-03T06:17:50.095Z,98396.28
2023-04-03T06:20:19.096Z,98395.53
2023-04-03T06:22:47.952Z,98399.83
2023-04-03T06:25:18.679Z,98408.56
2023-04-03T06:27:47.194Z,98413.69
2023-04-03T06:30:15.850Z,98413.17
2023-04-03T06:32:45.479Z,98416.13
2023-04-03T06:35:14.802Z,98417.83
2023-04-03T06:37:43.591Z,98426.52
2023-04-03T06:40:19.928Z,98425.20
2023-04-03T06:42:48.925Z,98429.06
2023-04-03T06:45:19.544Z,98432.13
2023-04-03T06:47:49.024Z,98433.23
2023-04-03T06:50:18.253Z,98437.50
2023-04-03T06:52:48.251Z,98442.27
2023-04-03T06:55:17.112Z,98443.94
2023-04-03T06:57:46.666Z,98447.73
2023-04-03T07:00:57.214Z,98445.41
2023-04-03T07:03:27.947Z,98453.81
2023-04-03T07:05:56.693Z,98458.04
2023-04-03T07:08:27.193Z,98460.80
2023-04-03T07:11:05.087Z,98465.59
2023-04-03T07:13:34.055Z,98464.67
2023-04-03T07:16:02.462Z,98464.41
2023-04-03T07:18:31.126Z,98469.09
2023-04-03T07:21:00.251Z,98466.02
2023-04-03T07:23:28.696Z,98470.90
2023-04-03T07:25:57.693Z,98473.02
2023-04-03T07:28:27.129Z,98473.02
2023-04-03T07:31:14.864Z,98478.54
2023-04-03T07:33:44.033Z,98478.41
2023-04-03T07:36:17.167Z,98486.05
2023-04-03T07:38:46.155Z,98487.48
2023-04-03T07:41:19.317Z,98484.44
2023-04-03T07:43:50.850Z,98484.98
2023-04-03T07:46:20.112Z,98486.71
2023-04-03T07:48:49.417Z,98490.02
2023-04-03T07:51:18.146Z,98491.02
2023-04-03T07:53:47.276Z,98495.88
2023-04-03T07:56:16.234Z,98500.09
2023-04-03T07:58:44.905Z,98503.89
2023-04-03T08:01:14.652Z,98508.63
2023-04-03T08:03:44.866Z,98511.02
2023-04-03T08:06:16.933Z,98511.33
2023-04-03T08:08:48.400Z,98511.60
2023-04-03T08:11:20.021Z,98513.53
2023-04-03T08:13:48.790Z,98519.52
2023-04-03T08:16:18.587Z,98521.79
2023-04-03T08:18:47.018Z,98524.74
2023-04-03T08:21:15.879Z,98532.34
2023-04-03T08:23:46.305Z,98532.25
2023-04-03T08:26:19.083Z,98535.06
2023-04-03T08:28:48.383Z,98541.06
2023-04-03T08:31:19.688Z,98540.78
2023-04-03T08:33:49.046Z,98540.95
2023-04-03T08:36:22.175Z,98549.08
2023-04-03T08:38:51.651Z,98554.45
2023-04-03T08:41:31.753Z,98560.69
2023-04-03T08:44:17.540Z,98561.46
2023-04-03T08:47:07.800Z,98556.65
2023-04-03T08:49:48.798Z,98558.66
2023-04-03T08:52:19.858Z,98560.67
2023-04-03T08:54:54.026Z,98561.15
2023-04-03T08:57:43.868Z,98563.08
2023-04-03T09:00:15.548Z,98565.56
2023-04-03T09:02:48.843Z,98568.48
2023-04-03T09:05:23.377Z,98571.50
2023-04-03T09:08:16.905Z,98570.24
2023-04-03T09:10:45.424Z,98571.49
2023-04-03T09:13:21.749Z,98573.20
2023-04-03T09:15:55.680Z,98577.40
2023-04-03T09:18:31.706Z,98577.45
2023-04-03T09:21:32.488Z,98584.96
2023-04-03T09:24:01.050Z,98582.45
2023-04-03T09:26:52.722Z,98587.61
2023-04-03T09:29:23.336Z,98587.49
2023-04-03T09:32:02.735Z,98585.48
2023-04-03T09:34:37.151Z,98583.59
2023-04-03T09:37:09.877Z,98585.17
2023-04-03T09:39:56.746Z,98588.25
2023-04-03T09:42:26.481Z,98594.29
2023-04-03T09:45:00.106Z,98595.45
2023-04-03T09:47:34.833Z,98596.82
2023-04-03T09:50:15.629Z,98605.21
2023-04-03T09:52:47.167Z,98606.79
2023-04-03T09:55:18.015Z,98610.99
2023-04-03T09:57:53.720Z,98611.92
2023-04-03T10:00:28.113Z,98622.98
2023-04-03T10:02:58.162Z,98621.75
2023-04-03T10:05:31.424Z,98625.92
2023-04-03T10:08:14.977Z,98630.46
2023-04-03T10:10:46.721Z,98630.26
2023-04-03T10:13:21.082Z,98631.15
2023-04-03T10:16:08.257Z,98638.02
2023-04-03T10:18:48.967Z,98639.82
2023-04-03T10:21:27.760Z,98644.17
2023-04-03T10:24:20.481Z,98646.09
2023-04-03T10:27:00.800Z,98645.69
2023-04-03T10:29:50.417Z,98654.77
2023-04-03T10:32:40.173Z,98658.85
2023-04-03T10:35:08.679Z,98655.64
2023-04-03T10:37:43.199Z,98662.27
2023-04-03T10:40:36.268Z,98665.89
2023-04-03T10:43:35.505Z,98671.94
2023-04-03T10:46:26.891Z,98677.04
2023-04-03T10:49:16.241Z,98676.02
2023-04-03T10:51:48.371Z,98678.98
2023-04-03T10:54:22.070Z,98681.27
2023-04-03T10:57:12.554Z,98682.60
2023-04-03T10:59:59.601Z,98686.98
2023-04-03T11:02:32.734Z,98691.14
2023-04-03T11:05:03.970Z,98690.44
2023-04-03T11:07:44.330Z,98690.02
2023-04-03T11:10:16.192Z,98683.32
2023-04-03T11:12:49.533Z,98686.95
2023-04-03T11:15:22.005Z,98685.60
2023-04-03T11:17:56.312Z,98687.00
2023-04-03T11:20:28.948Z,98683.56
2023-04-03T11:23:35.766Z,98686.58
2023-04-03T11:26:15.950Z,98689.27
2023-04-03T11:28:44.935Z,98693.63
2023-04-03T11:31:13.607Z,98692.66
2023-04-03T11:33:55.457Z,98694.95
2023-04-03T11:36:51.953Z,98694.83
2023-04-03T11:39:27.663Z,98699.32
2023-04-03T11:42:06.797Z,98699.29
2023-04-03T11:44:39.555Z,98701.20
2023-04-03T11:47:09.533Z,98697.38
2023-04-03T11:50:01.101Z,98693.42
2023-04-03T11:52:42.301Z,98698.23
2023-04-03T11:55:22.531Z,98696.21
2023-04-03T11:58:00.784Z,98699.29
2023-04-03T12:00:48.101Z,98701.05
2023-04-03T12:03:26.803Z,98703.38
2023-04-03T12:06:08.257Z,98705.46
2023-04-03T12:08:41.684Z,98708.27
2023-04-03T12:11:33.818Z,98710.09
2023-04-03T12:14:06.042Z,98707.83
2023-04-03T12:16:40.639Z,98707.23
2023-04-03T12:19:17.138Z,98706.70
2023-04-03T12:21:51.866Z,98711.55
2023-04-03T12:24:22.921Z,98712.98
2023-04-03T12:27:01.350Z,98718.89
2023-04-03T12:29:36.416Z,98720.98
2023-04-03T12:32:29.864Z,98719.19
2023-04-03T12:35:08.724Z,98720.52
2023-04-03T12:37:43.493Z,98721.30
2023-04-03T12:40:31.027Z,98723.78
2023-04-03T12:43:18.785Z,98726.46
2023-04-03T12:45:57.872Z,98730.00
2023-04-03T12:48:28.409Z,98731.04
2023-04-03T12:50:57.612Z,98736.23
2023-04-03T12:53:44.129Z,98733.20
2023-04-03T12:56:32.183Z,98735.66
2023-04-03T12:59:23.196Z,98732.88
2023-04-03T13:01:56.016Z,98735.90
2023-04-03T13:04:26.271Z,98737.53
2023-04-03T13:06:55.260Z,98744.44
2023-04-03T13:09:31.998Z,98751.10
2023-04-03T13:12:10.872Z,98757.98
2023-04-03T13:14:39.133Z,98758.92
2023-04-03T13:17:16.617Z,98757.89
2023-04-03T13:19:47.132Z,98760.70
2023-04-03T13:22:28.939Z,98759.48
2023-04-03T13:25:01.048Z,98763.83
2023-04-03T13:27:32.786Z,98759.80
2023-04-03T13:30:02.786Z,98760.67
2023-04-03T13:32:35.967Z,98760.63
2023-04-03T13:35:24.632Z,98760.77
2023-04-03T13:38:01.757Z,98769.73
2023-04-03T13:40:32.476Z,98770.11
2023-04-03T13:43:17.644Z,98773.04
2023-04-03T13:46:08.472Z,98778.39
2023-04-03T13:48:39.395Z,98777.81
2023-04-03T13:51:18.114Z,98783.77
2023-04-03T13:53:51.680Z,98784.48
2023-04-03T13:56:23.550Z,98784.93
2023-04-03T13:58:56.473Z,98787.73
2023-04-03T14:01:25.202Z,98790.41
2023-04-03T14:03:59.872Z,98793.33
2023-04-03T14:06:28.522Z,98789.48
2023-04-03T14:08:57.014Z,98792.20
2023-04-03T14:11:28.560Z,98794.92
2023-04-03T14:13:57.902Z,98788.65
2023-04-03T14:16:28.482Z,98794.78
2023-04-03T14:18:56.863Z,98799.56
2023-04-03T14:21:25.599Z,98804.68
2023-04-03T14:23:53.932Z,98811.88
2023-04-03T14:26:23.998Z,98814.41
2023-04-03T14:28:54.482Z,98812.77
2023-04-03T14:31:23.518Z,98812.20
2023-04-03T14:33:52.874Z,98818.55
2023-04-03T14:36:29.340Z,98818.39
2023-04-03T14:38:58.146Z,98822.16
2023-04-03T14:41:27.856Z,98828.40
2023-04-03T14:43:56.177Z,98831.08
2023-04-03T14:46:42.946Z,98838.19
2023-04-03T14:49:22.566Z,98836.13
2023-04-03T14:51:51.868Z,98836.33
2023-04-03T14:54:26.613Z,98839.33
2023-04-03T14:56:56.753Z,98837.30
2023-04-03T14:59:25.392Z,98840.70
2023-04-03T15:01:53.826Z,98840.00
2023-04-03T15:04:22.558Z,98839.81
2023-04-03T15:06:52.609Z,98837.31
2023-04-03T15:09:28.226Z,98845.95
2023-04-03T15:11:56.619Z,98852.25
2023-04-03T15:14:36.297Z,98849.33
2023-04-03T15:17:06.864Z,98850.48
2023-04-03T15:19:38.391Z,98848.59
2023-04-03T15:22:06.836Z,98856.16
2023-04-03T15:24:35.748Z,98861.36
2023-04-03T15:27:04.792Z,98859.11
2023-04-03T15:29:33.534Z,98862.27
2023-04-03T15:32:02.123Z,98858.47
2023-04-03T15:34:31.773Z,98859.30
2023-04-03T15:37:01.121Z,98855.15
2023-04-03T15:39:29.867Z,98852.70
2023-04-03T15:42:07.210Z,98852.66
2023-04-03T15:44:36.455Z,98855.17
2023-04-03T15:47:05.054Z,98856.66
2023-04-03T15:49:34.122Z,98855.42
2023-04-03T15:52:02.461Z,98857.15
2023-04-03T15:54:30.946Z,98853.79
2023-04-03T15:56:59.476Z,98856.43
2023-04-03T15:59:30.203Z,98851.77
2023-04-03T16:01:58.756Z,98855.04
2023-04-03T16:04:27.989Z,98856.27
2023-04-03T16:06:58.529Z,98862.95
2023-04-03T16:09:27.198Z,98863.70
2023-04-03T16:11:55.883Z,98860.61
2023-04-03T16:14:24.364Z,98860.97
2023-04-03T16:16:53.154Z,98862.15
2023-04-03T16:19:25.194Z,98865.30
2023-04-03T16:21:56.057Z,98866.13
2023-04-03T16:24:24.349Z,98866.36
2023-04-03T16:26:54.744Z,98869.07
2023-04-03T16:29:23.338Z,98872.23
2023-04-03T16:31:53.823Z,98878.17
2023-04-03T16:34:22.887Z,98883.04
2023-04-03T16:36:53.418Z,98881.86
2023-04-03T16:39:21.973Z,98886.44
2023-04-03T16:41:52.228Z,98895.97
2023-04-03T16:44:21.283Z,98904.56
2023-04-03T16:46:49.804Z,98913.61
2023-04-03T16:49:18.614Z,98920.02
2023-04-03T16:51:47.850Z,98926.44
2023-04-03T16:54:16.227Z,98925.84
2023-04-03T16:56:45.952Z,98927.54
2023-04-03T16:59:15.053Z,98929.50
2023-04-03T17:01:43.725Z,98925.88
2023-04-03T17:04:14.079Z,98929.41
2023-04-03T17:06:43.339Z,98929.27
2023-04-03T17:09:12.833Z,98932.55
2023-04-03T17:11:42.695Z,98933.11
2023-04-03T17:14:14.635Z,98935.34
2023-04-03T17:16:43.418Z,98935.82
2023-04-03T17:19:13.136Z,98940.19
2023-04-03T17:21:41.699Z,98937.66
2023-04-03T17:24:13.647Z,98943.30
2023-04-03T17:26:42.678Z,98946.62
2023-04-03T17:29:11.144Z,98953.17
2023-04-03T17:31:41.277Z,98958.00
2023-04-03T17:34:12.309Z,98956.41
2023-04-03T17:36:41.873Z,98959.38
2023-04-03T17:39:10.722Z,98955.23
2023-04-03T17:41:39.383Z,98959.14
2023-04-03T17:44:08.418Z,98961.98
2023-04-03T17:46:37.039Z,98964.77
2023-04-03T17:49:06.159Z,98962.80
2023-04-03T17:51:34.728Z,98961.36
2023-04-03T17:54:03.648Z,98964.16
2023-04-03T17:56:32.516Z,98966.83
2023-04-03T17:59:01.016Z,98966.87
2023-04-03T18:01:32.080Z,98972.52
2023-04-03T18:04:02.493Z,98977.76
2023-04-03T18:06:53.900Z,98978.48
2023-04-03T18:09:27.686Z,98969.74
2023-04-03T18:11:55.950Z,98962.25
2023-04-03T18:14:25.883Z,98959.97
2023-04-03T18:16:57.549Z,98959.94
2023-04-03T18:19:29.058Z,98966.67
2023-04-03T18:22:02.277Z,98973.59
2023-04-03T18:24:33.220Z,98967.95
2023-04-03T18:27:07.720Z,98966.31
2023-04-03T18:29:37.045Z,98968.60
2023-04-03T18:32:08.894Z,98967.51
2023-04-03T18:34:38.409Z,98973.41
2023-04-03T18:37:06.988Z,98977.43
2023-04-03T18:39:36.489Z,98984.02
2023-04-03T18:42:10.746Z,98991.98
2023-04-03T18:44:39.186Z,98997.48
2023-04-03T18:47:08.211Z,99000.39
2023-04-03T18:49:37.815Z,99005.98
2023-04-03T18:52:06.059Z,99010.58
2023-04-03T18:54:37.520Z,99013.86
2023-04-03T18:57:06.224Z,99017.80
2023-04-03T18:59:38.974Z,99018.42
2023-04-03T19:02:08.822Z,99025.68
2023-04-03T19:04:39.841Z,99021.45
2023-04-03T19:07:11.692Z,99021.27
2023-04-03T19:09:40.724Z,99018.55
2023-04-03T19:12:09.374Z,99020.38
2023-04-03T19:14:41.944Z,99023.33
2023-04-03T19:17:10.423Z,99027.56
2023-04-03T19:19:39.220Z,99035.98
2023-04-03T19:22:09.536Z,99040.16
2023-04-03T19:24:37.969Z,99045.45
2023-04-03T19:27:06.944Z,99043.63
2023-04-03T19:29:35.490Z,99043.99
2023-04-03T19:32:04.298Z,99053.08
2023-04-03T19:34:32.974Z,99051.65
2023-04-03T19:37:02.500Z,99049.60
2023-04-03T19:39:35.369Z,99049.61
2023-04-03T19:42:05.270Z,99045.96
2023-04-03T19:44:36.003Z,99045.41
2023-04-03T19:47:04.507Z,99051.00
2023-04-03T19:49:33.065Z,99061.14
2023-04-03T19:52:01.748Z,99063.19
2023-04-03T19:54:30.888Z,99058.67
2023-04-03T20:04:35.907Z,99059.89
2023-04-03T20:07:05.537Z,99058.82
2023-04-03T20:09:34.765Z,99058.66
2023-04-03T20:12:03.416Z,99057.46
2023-04-03T20:14:32.510Z,99057.27
2023-04-03T20:17:02.882Z,99057.13
2023-04-03T20:19:33.418Z,99064.56
2023-04-03T20:22:01.953Z,99066.09
2023-04-03T20:24:34.323Z,99064.38
2023-04-03T20:27:03.741Z,99064.39
2023-04-03T20:29:32.720Z,99063.59
2023-04-03T20:32:01.511Z,99071.74
2023-04-03T20:34:30.905Z,99069.27
2023-04-03T20:37:01.275Z,99069.16
2023-04-03T20:39:30.107Z,99064.79
2023-04-03T20:41:59.724Z,99066.14
2023-04-03T20:44:29.233Z,99068.55
2023-04-03T20:46:58.594Z,99070.37
2023-04-03T20:49:27.520Z,99079.61
2023-04-03T20:51:56.007Z,99083.55
2023-04-03T20:54:25.202Z,99087.56
2023-04-03T20:56:53.779Z,99080.94
2023-04-03T20:59:23.136Z,99075.56
2023-04-03T21:01:51.581Z,99068.14
2023-04-03T21:04:20.053Z,99076.48
2023-04-03T21:07:27.653Z,99080.23
2023-04-03T21:10:34.234Z,99084.32
2023-04-03T21:13:40.896Z,99082.28
2023-04-03T21:16:09.897Z,99078.25
2023-04-03T21:18:53.930Z,99075.63
2023-04-03T21:21:23.313Z,99076.80
2023-04-03T21:23:53.131Z,99069.60
2023-04-03T21:26:22.138Z,99068.16
2023-04-03T21:28:50.598Z,99067.35
2023-04-03T21:31:22.915Z,99059.81
2023-04-03T21:33:54.956Z,99053.00
2023-04-03T21:36:23.537Z,99056.69
2023-04-03T21:38:52.748Z,99055.45
2023-04-03T21:41:22.497Z,99051.39
2023-04-03T21:43:51.066Z,99041.59
2023-04-03T21:46:20.871Z,99034.80
2023-04-03T21:48:49.832Z,99029.56
2023-04-03T21:51:20.187Z,99031.81
2023-04-03T21:53:53.899Z,99032.95
2023-04-03T21:56:25.103Z,99034.50
2023-04-03T21:58:53.771Z,99038.29
2023-04-03T22:01:22.594Z,99032.15
2023-04-03T22:03:51.975Z,99034.43
2023-04-03T22:06:20.907Z,99035.20
2023-04-03T22:08:50.822Z,99036.15
2023-04-03T22:11:19.089Z,99034.61
2023-04-03T22:13:47.538Z,99031.69
2023-04-03T22:16:16.753Z,99036.09
2023-04-03T22:18:45.944Z,99037.56
2023-04-03T22:21:14.224Z,99034.91
2023-04-03T22:23:43.407Z,99034.90
2023-04-03T22:26:12.246Z,99042.27
2023-04-03T22:28:45.418Z,99042.42
2023-04-03T22:31:14.644Z,99051.13
2023-04-03T22:33:44.497Z,99045.25
2023-04-03T22:36:13.624Z,99041.63
2023-04-03T22:39:00.443Z,99040.92
2023-04-03T22:41:29.801Z,99039.21
2023-04-03T22:43:58.487Z,99035.98
2023-04-03T22:46:28.482Z,99034.05
2023-04-03T22:48:57.698Z,99033.30
2023-04-03T22:51:26.082Z,99034.34
2023-04-03T22:53:55.097Z,99032.27
2023-04-03T22:56:26.003Z,99028.08
2023-04-03T22:58:56.941Z,99029.06
2023-04-03T23:01:25.395Z,99029.25
2023-04-03T23:03:55.927Z,99026.72
2023-04-03T23:06:24.410Z,99019.36
2023-04-03T23:08:54.368Z,99020.86
2023-04-03T23:11:22.834Z,99024.41
2023-04-03T23:13:51.416Z,99017.87
2023-04-03T23:16:20.049Z,99011.44
2023-04-03T23:19:07.501Z,99014.19
2023-04-03T23:21:36.514Z,99012.55
2023-04-03T23:24:05.508Z,99011.19
2023-04-03T23:26:34.136Z,99004.93
2023-04-03T23:29:03.090Z,99003.12
2023-04-03T23:31:31.510Z,99003.70
2023-04-03T23:34:00.261Z,99004.76
2023-04-03T23:36:28.938Z,99006.72
2023-04-03T23:38:57.356Z,99012.23
2023-04-03T23:41:26.830Z,99004.77
2023-04-03T23:43:55.923Z,99004.61
2023-04-03T23:46:24.697Z,99004.67
2023-04-03T23:48:53.198Z,99006.95
2023-04-03T23:51:21.924Z,99011.31
2023-04-03T23:53:50.768Z,99006.83
2023-04-03T23:56:19.866Z,99002.96
2023-04-03T23:58:48.358Z,98999.94
